createdAt,value
2023-02-07T00:01:37.852Z,54.73
2023-02-07T00:04:18.535Z,54.50
2023-02-07T00:06:58.202Z,54.63
2023-02-07T00:09:50.417Z,54.62
2023-02-07T00:12:29.921Z,55.06
2023-02-07T00:15:21.779Z,55.17
2023-02-07T00:18:02.214Z,55.12
2023-02-07T00:20:35.638Z,54.59
2023-02-07T00:23:15.122Z,53.92
2023-02-07T00:26:04.794Z,54.11
2023-02-07T00:28:33.315Z,54.14
2023-02-07T00:31:07.877Z,54.30
2023-02-07T00:33:38.109Z,53.81
2023-02-07T00:36:06.363Z,53.96
2023-02-07T00:38:34.117Z,53.61
2023-02-07T00:41:03.019Z,54.57
2023-02-07T00:43:34.612Z,54.90
2023-02-07T00:46:31.139Z,54.32
2023-02-07T00:49:10.295Z,54.27
2023-02-07T00:52:02.122Z,54.37
2023-02-07T00:54:41.162Z,54.52
2023-02-07T00:57:31.845Z,54.59
2023-02-07T01:00:12.003Z,54.15
2023-02-07T01:02:52.772Z,55.01
2023-02-07T01:05:45.834Z,53.99
2023-02-07T01:08:39.157Z,54.77
2023-02-07T01:11:07.943Z,54.66
2023-02-07T01:13:37.625Z,54.38
2023-02-07T01:16:06.243Z,53.75
2023-02-07T01:18:34.032Z,53.73
2023-02-07T01:21:02.851Z,53.50
2023-02-07T01:23:30.143Z,53.79
2023-02-07T01:25:59.403Z,54.11
2023-02-07T01:28:28.504Z,53.87
2023-02-07T01:30:56.041Z,54.21
2023-02-07T01:33:28.091Z,54.40
2023-02-07T01:35:56.059Z,54.23
2023-02-07T01:38:23.319Z,53.70
2023-02-07T01:40:51.273Z,53.56
2023-02-07T01:43:20.911Z,54.04
2023-02-07T01:45:48.897Z,54.19
2023-02-07T01:48:36.583Z,54.45
2023-02-07T01:51:08.922Z,54.43
2023-02-07T01:53:36.685Z,54.87
2023-02-07T01:56:07.097Z,55.54
2023-02-07T01:58:35.433Z,55.22
2023-02-07T02:01:06.564Z,54.87
2023-02-07T02:03:34.693Z,54.81
2023-02-07T02:06:02.954Z,55.87
2023-02-07T02:08:31.302Z,55.54
2023-02-07T02:11:17.620Z,55.31
2023-02-07T02:13:46.783Z,54.58
2023-02-07T02:16:24.803Z,55.26
2023-02-07T02:19:02.370Z,55.02
2023-02-07T02:21:48.777Z,55.48
2023-02-07T02:24:42.060Z,54.72
2023-02-07T02:27:19.334Z,54.65
2023-02-07T02:30:07.712Z,55.36
2023-02-07T02:32:54.949Z,55.69
2023-02-07T02:35:51.601Z,55.13
2023-02-07T02:38:55.557Z,55.45
2023-02-07T02:41:51.021Z,55.68
2023-02-07T02:44:22.824Z,56.62
2023-02-07T02:46:50.338Z,56.29
2023-02-07T02:49:18.050Z,56.55
2023-02-07T02:51:45.586Z,56.58
2023-02-07T02:54:33.055Z,55.77
2023-02-07T02:57:03.941Z,55.45
2023-02-07T02:59:41.000Z,55.82
2023-02-07T03:02:24.459Z,55.98
2023-02-07T03:04:52.523Z,55.94
2023-02-07T03:07:33.604Z,55.71
2023-02-07T03:10:12.401Z,56.04
2023-02-07T03:12:42.129Z,55.64
2023-02-07T03:15:16.909Z,55.66
2023-02-07T03:18:00.842Z,56.04
2023-02-07T03:20:39.333Z,56.10
2023-02-07T03:23:06.917Z,55.74
2023-02-07T03:25:36.004Z,55.25
2023-02-07T03:28:05.063Z,55.68
2023-02-07T03:30:33.700Z,55.82
2023-02-07T03:33:07.956Z,56.17
2023-02-07T03:35:37.272Z,56.82
2023-02-07T03:38:06.007Z,56.85
2023-02-07T03:40:35.929Z,57.14
2023-02-07T03:43:05.136Z,56.60
2023-02-07T03:45:33.077Z,56.59
2023-02-07T03:48:00.990Z,56.12
2023-02-07T03:50:29.378Z,56.16
2023-02-07T03:53:14.707Z,56.40
2023-02-07T03:55:56.703Z,55.81
2023-02-07T03:58:45.926Z,55.02
2023-02-07T04:01:16.869Z,55.31
2023-02-07T04:03:44.900Z,55.45
2023-02-07T04:06:13.021Z,55.41
2023-02-07T04:08:45.010Z,55.53
2023-02-07T04:11:13.760Z,55.41
2023-02-07T04:13:45.895Z,55.44
2023-02-07T04:16:14.493Z,55.40
2023-02-07T04:18:43.514Z,54.79
2023-02-07T04:21:36.145Z,54.37
2023-02-07T04:24:18.800Z,54.53
2023-02-07T04:26:59.541Z,55.51
2023-02-07T04:29:27.046Z,55.71
2023-02-07T04:31:55.631Z,56.14
2023-02-07T04:34:26.675Z,55.54
2023-02-07T04:36:56.940Z,55.52
2023-02-07T04:39:48.015Z,55.66
2023-02-07T04:42:36.044Z,56.02
2023-02-07T04:45:07.354Z,55.92
2023-02-07T04:50:15.730Z,56.50
2023-02-07T04:52:45.799Z,56.13
2023-02-07T04:55:13.853Z,55.78
2023-02-07T04:57:41.315Z,55.49
2023-02-07T05:00:10.834Z,55.30
2023-02-07T05:02:44.496Z,55.19
2023-02-07T05:05:14.929Z,55.25
2023-02-07T05:07:49.244Z,55.14
2023-02-07T05:10:24.342Z,55.59
2023-02-07T05:12:52.080Z,55.62
2023-02-07T05:15:23.562Z,55.77
2023-02-07T05:17:53.309Z,55.95
2023-02-07T05:20:27.840Z,55.31
2023-02-07T05:23:10.598Z,55.29
2023-02-07T05:25:53.836Z,55.26
2023-02-07T05:28:36.067Z,55.67
2023-02-07T05:31:51.022Z,55.69
2023-02-07T05:34:34.792Z,55.33
2023-02-07T05:37:26.381Z,54.92
2023-02-07T05:40:13.925Z,55.29
2023-02-07T05:42:56.286Z,55.92
2023-02-07T05:45:29.846Z,55.63
2023-02-07T05:47:59.072Z,55.70
2023-02-07T05:50:26.916Z,55.27
2023-02-07T05:56:00.472Z,56.34
2023-02-07T05:58:42.122Z,55.56
2023-02-07T06:01:27.247Z,55.14
2023-02-07T06:04:30.484Z,54.96
2023-02-07T06:07:00.269Z,55.17
2023-02-07T06:09:51.018Z,55.50
2023-02-07T06:12:21.902Z,55.09
2023-02-07T06:14:55.871Z,55.15
2023-02-07T06:17:35.883Z,55.02
2023-02-07T06:20:04.708Z,54.73
2023-02-07T06:22:34.271Z,54.22
2023-02-07T06:25:03.711Z,55.14
2023-02-07T06:27:37.429Z,55.02
2023-02-07T06:30:07.073Z,55.21
2023-02-07T06:32:36.529Z,54.85
2023-02-07T06:35:05.576Z,54.87
2023-02-07T06:37:38.835Z,54.98
2023-02-07T06:40:09.849Z,54.43
2023-02-07T06:42:45.854Z,54.66
2023-02-07T06:45:21.336Z,54.80
2023-02-07T06:48:05.956Z,55.02
2023-02-07T06:51:12.520Z,55.21
2023-02-07T06:53:53.028Z,55.84
2023-02-07T06:56:45.078Z,55.83
2023-02-07T06:59:29.475Z,56.26
2023-02-07T07:02:25.934Z,56.27
2023-02-07T07:04:55.014Z,56.50
2023-02-07T07:07:23.886Z,56.89
2023-02-07T07:10:00.890Z,57.38
2023-02-07T07:12:37.047Z,57.22
2023-02-07T07:15:15.819Z,57.52
2023-02-07T07:17:48.186Z,57.25
2023-02-07T07:20:17.094Z,57.11
2023-02-07T07:22:48.022Z,56.76
2023-02-07T07:25:16.124Z,56.99
2023-02-07T07:27:43.967Z,56.48
2023-02-07T07:30:14.976Z,55.95
2023-02-07T07:32:43.804Z,56.30
2023-02-07T07:35:18.786Z,55.89
2023-02-07T07:37:48.863Z,55.79
2023-02-07T07:40:22.443Z,56.52
2023-02-07T07:42:57.483Z,56.28
2023-02-07T07:45:27.864Z,55.79
2023-02-07T07:48:05.234Z,55.88
2023-02-07T07:50:37.949Z,54.90
2023-02-07T07:53:08.999Z,54.89
2023-02-07T07:56:00.803Z,55.28
2023-02-07T07:58:32.517Z,54.61
2023-02-07T08:01:17.813Z,54.11
2023-02-07T08:03:52.194Z,53.59
2023-02-07T08:06:21.043Z,52.85
2023-02-07T08:08:51.747Z,52.32
2023-02-07T08:11:32.135Z,52.83
2023-02-07T08:14:01.033Z,52.33
2023-02-07T08:17:21.176Z,52.62
2023-02-07T08:20:36.550Z,51.92
2023-02-07T08:23:11.116Z,51.38
2023-02-07T08:26:09.047Z,51.97
2023-02-07T08:29:17.785Z,50.65
2023-02-07T08:32:02.279Z,49.94
2023-02-07T08:35:00.543Z,49.86
2023-02-07T08:37:44.964Z,49.39
2023-02-07T08:40:25.629Z,49.59
2023-02-07T08:43:26.404Z,50.00
2023-02-07T08:46:12.020Z,48.56
2023-02-07T08:48:52.317Z,49.06
2023-02-07T08:51:33.319Z,50.03
2023-02-07T08:57:35.179Z,47.63
2023-02-07T09:00:40.044Z,46.79
2023-02-07T09:03:28.202Z,47.49
2023-02-07T09:06:08.982Z,46.88
2023-02-07T09:08:41.159Z,46.48
2023-02-07T09:11:32.752Z,47.58
2023-02-07T09:14:21.398Z,47.36
2023-02-07T09:17:03.500Z,48.27
2023-02-07T09:19:45.256Z,47.74
2023-02-07T09:22:37.742Z,47.23
2023-02-07T09:25:14.911Z,46.73
2023-02-07T09:28:00.898Z,46.54
2023-02-07T09:30:38.651Z,45.69
2023-02-07T09:33:35.988Z,45.06
2023-02-07T09:36:22.189Z,44.71
2023-02-07T09:38:59.253Z,44.29
2023-02-07T09:42:12.963Z,45.03
2023-02-07T09:45:22.785Z,43.62
2023-02-07T09:48:04.137Z,42.46
2023-02-07T09:50:45.938Z,42.24
2023-02-07T09:56:20.458Z,42.38
2023-02-07T09:59:18.461Z,41.77
2023-02-07T10:01:55.952Z,41.54
2023-02-07T10:04:42.988Z,41.58
2023-02-07T10:07:22.868Z,40.73
2023-02-07T10:10:00.321Z,40.14
2023-02-07T10:12:50.770Z,38.87
2023-02-07T10:15:56.826Z,38.71
2023-02-07T10:18:54.772Z,37.34
2023-02-07T10:21:43.626Z,38.45
2023-02-07T10:24:35.826Z,41.92
2023-02-07T10:27:14.766Z,40.04
2023-02-07T10:30:02.053Z,40.23
2023-02-07T10:32:41.152Z,37.63
2023-02-07T10:35:29.335Z,36.91
2023-02-07T10:38:02.416Z,36.17
2023-02-07T10:40:49.711Z,37.09
2023-02-07T10:43:35.257Z,36.24
2023-02-07T10:46:09.952Z,34.61
2023-02-07T10:48:52.928Z,35.13
2023-02-07T10:51:38.275Z,37.16
2023-02-07T10:54:14.987Z,36.00
2023-02-07T10:56:56.013Z,35.30
2023-02-07T11:00:01.933Z,35.37
2023-02-07T11:02:43.031Z,36.79
2023-02-07T11:05:15.823Z,36.85
2023-02-07T11:08:12.029Z,36.61
2023-02-07T11:10:44.714Z,35.27
2023-02-07T11:13:17.061Z,36.17
2023-02-07T11:15:51.124Z,36.47
2023-02-07T11:18:29.754Z,38.92
2023-02-07T11:21:01.066Z,35.46
2023-02-07T11:23:29.798Z,35.63
2023-02-07T11:28:43.783Z,35.10
2023-02-07T11:31:18.820Z,34.37
2023-02-07T11:33:48.659Z,34.57
2023-02-07T11:36:32.952Z,33.98
2023-02-07T11:39:06.093Z,33.12
2023-02-07T11:41:40.669Z,33.21
2023-02-07T11:44:19.036Z,35.50
2023-02-07T11:46:57.937Z,35.42
2023-02-07T11:49:31.202Z,34.73
2023-02-07T11:52:02.356Z,33.34
2023-02-07T11:57:11.989Z,33.37
2023-02-07T12:00:08.941Z,34.68
2023-02-07T12:03:00.848Z,33.44
2023-02-07T12:05:40.995Z,33.13
2023-02-07T12:08:23.797Z,34.47
2023-02-07T12:11:18.725Z,33.22
2023-02-07T12:19:34.823Z,32.93
2023-02-07T12:22:17.150Z,33.19
2023-02-07T12:24:58.737Z,31.50
2023-02-07T12:27:40.931Z,30.20
2023-02-07T12:30:33.248Z,32.21
2023-02-07T12:33:18.772Z,33.09
2023-02-07T12:36:03.410Z,30.76
2023-02-07T12:41:54.040Z,33.01
2023-02-07T12:44:30.925Z,34.04
2023-02-07T12:47:35.992Z,35.59
2023-02-07T12:50:18.925Z,35.43
2023-02-07T12:53:16.723Z,34.98
2023-02-07T12:55:57.468Z,33.41
2023-02-07T12:58:52.945Z,33.66
2023-02-07T13:01:52.934Z,31.84
2023-02-07T13:04:25.966Z,32.48
2023-02-07T13:07:25.833Z,32.99
2023-02-07T13:10:24.060Z,33.04
2023-02-07T13:13:09.712Z,32.98
2023-02-07T13:16:21.323Z,32.88
2023-02-07T13:19:05.951Z,32.24
2023-02-07T13:21:47.823Z,32.89
2023-02-07T13:24:20.227Z,31.84
2023-02-07T13:26:56.026Z,32.64
2023-02-07T13:29:38.958Z,31.93
2023-02-07T13:32:19.660Z,32.29
2023-02-07T13:34:59.929Z,31.65
2023-02-07T13:38:02.646Z,32.89
2023-02-07T13:40:44.403Z,31.93
2023-02-07T13:43:43.702Z,32.21
2023-02-07T13:46:33.665Z,32.58
2023-02-07T13:49:31.053Z,33.29
2023-02-07T13:52:11.832Z,33.36
2023-02-07T13:54:55.697Z,32.21
2023-02-07T13:57:58.811Z,32.92
2023-02-07T14:00:41.726Z,32.92
2023-02-07T14:03:33.152Z,32.92
2023-02-07T14:06:14.409Z,33.29
2023-02-07T14:08:46.730Z,33.05
2023-02-07T14:15:00.340Z,33.05
2023-02-07T14:17:42.738Z,32.51
2023-02-07T14:20:37.479Z,33.30
2023-02-07T14:23:20.708Z,33.26
2023-02-07T14:25:53.641Z,33.34
2023-02-07T14:34:14.701Z,34.43
2023-02-07T14:36:44.683Z,33.51
2023-02-07T14:39:20.698Z,33.44
2023-02-07T14:42:04.669Z,33.56
2023-02-07T14:44:54.819Z,34.19
2023-02-07T14:47:29.790Z,34.47
2023-02-07T14:50:03.685Z,35.52
2023-02-07T14:52:41.715Z,36.03
2023-02-07T14:58:04.808Z,36.10
2023-02-07T15:03:26.711Z,35.55
2023-02-07T15:08:40.131Z,35.94
2023-02-07T15:11:30.682Z,35.73
2023-02-07T15:14:15.789Z,36.02
2023-02-07T15:19:36.941Z,36.31
2023-02-07T15:22:24.911Z,36.38
2023-02-07T15:24:59.334Z,36.51
2023-02-07T15:27:31.858Z,36.15
2023-02-07T15:30:14.653Z,36.81
2023-02-07T15:32:57.093Z,36.89
2023-02-07T15:35:29.897Z,37.19
2023-02-07T15:38:31.869Z,36.76
2023-02-07T15:41:08.662Z,36.99
2023-02-07T15:44:07.057Z,37.33
2023-02-07T15:46:47.922Z,37.98
2023-02-07T15:49:30.071Z,38.52
2023-02-07T15:52:17.741Z,38.14
2023-02-07T15:57:35.954Z,38.73
2023-02-07T16:00:20.040Z,39.27
2023-02-07T16:03:14.757Z,39.19
2023-02-07T16:05:51.049Z,39.49
2023-02-07T16:08:40.843Z,39.75
2023-02-07T16:11:19.552Z,39.84
2023-02-07T16:14:00.161Z,40.36
2023-02-07T16:16:41.453Z,40.47
2023-02-07T16:19:19.123Z,40.45
2023-02-07T16:22:01.901Z,40.91
2023-02-07T16:24:41.264Z,41.29
2023-02-07T16:27:31.755Z,41.52
2023-02-07T16:30:16.900Z,41.48
2023-02-07T16:32:55.500Z,42.16
2023-02-07T16:35:33.944Z,42.11
2023-02-07T16:38:10.050Z,42.14
2023-02-07T16:43:47.749Z,42.40
2023-02-07T16:46:27.040Z,42.60
2023-02-07T16:49:02.802Z,43.17
2023-02-07T16:51:33.563Z,43.60
2023-02-07T16:56:47.956Z,43.38
2023-02-07T16:59:29.853Z,43.60
2023-02-07T17:02:25.792Z,44.03
2023-02-07T17:04:53.368Z,44.13
2023-02-07T17:07:32.782Z,44.10
2023-02-07T17:10:16.791Z,44.28
2023-02-07T17:12:46.227Z,44.28
2023-02-07T17:15:21.800Z,44.54
2023-02-07T17:18:10.639Z,43.85
2023-02-07T17:20:41.249Z,44.00
2023-02-07T17:23:23.763Z,44.42
2023-02-07T17:25:55.953Z,45.16
2023-02-07T17:28:31.628Z,45.62
2023-02-07T17:33:43.640Z,45.21
2023-02-07T17:36:19.241Z,45.34
2023-02-07T17:38:55.716Z,45.29
2023-02-07T17:41:26.589Z,44.36
2023-02-07T17:44:02.610Z,44.66
2023-02-07T17:46:40.747Z,45.56
2023-02-07T17:49:23.669Z,46.11
2023-02-07T17:54:39.703Z,46.51
2023-02-07T17:59:55.801Z,46.97
2023-02-07T18:02:25.802Z,47.78
2023-02-07T18:04:59.855Z,48.07
2023-02-07T18:07:35.266Z,48.32
2023-02-07T18:10:11.604Z,47.72
2023-02-07T18:12:44.437Z,47.82
2023-02-07T18:17:59.146Z,47.97
2023-02-07T18:20:31.913Z,48.31
2023-02-07T18:23:16.964Z,48.70
2023-02-07T18:25:51.017Z,49.04
2023-02-07T18:39:04.580Z,49.27
2023-02-07T18:41:52.655Z,49.65
2023-02-07T18:44:29.688Z,49.01
2023-02-07T18:49:42.685Z,49.32
2023-02-07T18:52:11.091Z,49.44
2023-02-07T18:54:44.762Z,49.37
2023-02-07T18:57:13.051Z,49.39
2023-02-07T18:59:40.948Z,49.67
2023-02-07T19:02:13.720Z,49.33
2023-02-07T19:04:42.145Z,49.55
2023-02-07T19:07:19.610Z,49.45
2023-02-07T19:09:55.150Z,49.34
2023-02-07T19:12:30.018Z,49.10
2023-02-07T19:15:00.799Z,49.23
2023-02-07T19:17:36.909Z,49.93
2023-02-07T19:20:15.604Z,49.46
2023-02-07T19:22:45.172Z,50.07
2023-02-07T19:25:18.644Z,50.16
2023-02-07T19:27:49.694Z,49.84
2023-02-07T19:35:27.745Z,50.42
2023-02-07T19:38:02.588Z,50.53
2023-02-07T19:40:41.114Z,50.61
2023-02-07T19:43:17.932Z,50.97
2023-02-07T19:45:49.612Z,51.31
2023-02-07T19:48:22.852Z,50.96
2023-02-07T19:51:01.629Z,50.72
2023-02-07T19:53:34.615Z,50.84
2023-02-07T19:56:09.622Z,50.50
2023-02-07T19:58:57.619Z,50.65
2023-02-07T20:01:28.780Z,50.78
2023-02-07T20:06:46.710Z,51.29
2023-02-07T20:09:17.611Z,51.18
2023-02-07T20:11:52.621Z,51.81
2023-02-07T20:19:42.696Z,52.46
2023-02-07T20:22:19.796Z,52.12
2023-02-07T20:24:59.595Z,52.08
2023-02-07T20:27:27.593Z,51.87
2023-02-07T20:30:02.677Z,51.62
2023-02-07T20:32:38.106Z,52.46
2023-02-07T20:35:18.582Z,52.53
2023-02-07T20:37:54.738Z,52.41
2023-02-07T20:40:41.874Z,52.28
2023-02-07T20:43:12.705Z,52.13
2023-02-07T20:45:41.867Z,51.72
2023-02-07T20:48:20.049Z,51.72
2023-02-07T20:50:57.572Z,52.25
2023-02-07T20:53:40.920Z,52.34
2023-02-07T20:56:24.584Z,52.48
2023-02-07T20:59:00.711Z,51.25
2023-02-07T21:01:38.676Z,52.03
2023-02-07T21:04:11.597Z,52.09
2023-02-07T21:06:42.920Z,51.78
2023-02-07T21:09:13.529Z,51.47
2023-02-07T21:11:48.090Z,51.67
2023-02-07T21:14:24.466Z,51.28
2023-02-07T21:16:57.833Z,51.36
2023-02-07T21:22:08.837Z,51.02
2023-02-07T21:24:38.526Z,51.14
2023-02-07T21:27:08.704Z,51.16
2023-02-07T21:29:44.437Z,51.48
2023-02-07T21:32:12.883Z,52.30
2023-02-07T21:34:40.684Z,52.21
2023-02-07T21:37:10.141Z,52.54
2023-02-07T21:39:49.549Z,52.56
2023-02-07T21:42:39.564Z,53.05
2023-02-07T21:45:10.897Z,52.83
2023-02-07T21:47:50.610Z,53.47
2023-02-07T21:50:52.389Z,53.03
2023-02-07T21:53:26.840Z,52.88
2023-02-07T21:56:25.941Z,52.63
2023-02-07T21:59:12.389Z,53.12
2023-02-07T22:02:06.604Z,52.94
2023-02-07T22:04:54.725Z,53.39
2023-02-07T22:07:46.843Z,53.74
2023-02-07T22:10:36.560Z,53.85
2023-02-07T22:13:26.463Z,53.60
2023-02-07T22:16:10.794Z,53.41
2023-02-07T22:18:54.491Z,54.02
2023-02-07T22:21:38.158Z,53.59
2023-02-07T22:24:31.792Z,53.28
2023-02-07T22:27:11.638Z,53.89
2023-02-07T22:29:49.820Z,53.57
2023-02-07T22:32:20.392Z,53.41
2023-02-07T22:34:49.677Z,53.32
2023-02-07T22:37:18.782Z,53.49
2023-02-07T22:39:49.189Z,53.81
2023-02-07T22:42:17.392Z,53.89
2023-02-07T22:44:46.073Z,54.37
2023-02-07T22:47:18.548Z,54.66
2023-02-07T22:49:46.657Z,54.55
2023-02-07T22:52:20.662Z,54.80
2023-02-07T22:54:51.887Z,54.60
2023-02-07T22:57:19.953Z,54.49
2023-02-07T23:00:09.371Z,54.14
2023-02-07T23:03:01.002Z,54.75
2023-02-07T23:05:43.618Z,54.37
2023-02-07T23:08:38.850Z,54.32
2023-02-07T23:11:23.986Z,54.26
2023-02-07T23:14:20.994Z,54.67
2023-02-07T23:17:06.917Z,54.34
2023-02-07T23:19:50.851Z,55.35
2023-02-07T23:22:37.368Z,55.22
2023-02-07T23:25:29.500Z,55.43
2023-02-07T23:28:08.675Z,54.92
2023-02-07T23:30:51.797Z,55.09
2023-02-07T23:33:43.593Z,55.03
2023-02-07T23:36:22.964Z,54.97
2023-02-07T23:39:14.970Z,54.94
2023-02-07T23:41:55.010Z,54.73
2023-02-07T23:44:50.411Z,54.84
2023-02-07T23:47:30.703Z,54.93
2023-02-07T23:49:59.336Z,54.36
2023-02-07T23:52:27.005Z,54.63
2023-02-07T23:54:54.653Z,54.59
2023-02-07T23:57:23.210Z,54.92
2023-02-07T23:59:51.554Z,55.11
